Terminal Aerodrome Forecast
Issued by NWS

Home | Current Version | Previous Version | Text Only | Print | Product List | Glossary On
Versions: 1 2 3 4 5 6 7 8 9 10 11 12
000
FTUS45 KRIW 272300
TAFLND
TAF
KLND 272320Z 2800/2824 VRB06KT P6SM VCSH FEW040 SCT060 OVC090
     FM280200 VRB05KT P6SM SCT060 BKN090
     FM280700 VRB05KT P6SM SCT090
     FM280900 VRB04KT P6SM VCFG SCT012
     FM281700 05005KT P6SM FEW090=

USA.gov is the U.S. government's official web portal to all federal, state and local government web resources and services.